sensor_id;sensor_type;location;lat;lon;timestamp;pressure;altitude;pressure_sealevel;temperature;humidity
11676;BME280;5894;42.768;23.404;2023-04-28T00:00:22;95878.56;;;7.42;100.00
11676;BME280;5894;42.768;23.404;2023-04-28T00:03:05;95877.53;;;7.37;100.00
11676;BME280;5894;42.768;23.404;2023-04-28T00:05:43;95881.44;;;7.40;99.23
11676;BME280;5894;42.768;23.404;2023-04-28T00:08:45;95877.78;;;7.41;99.35
11676;BME280;5894;42.768;23.404;2023-04-28T00:11:18;95878.88;;;7.35;100.00
11676;BME280;5894;42.768;23.404;2023-04-28T00:13:56;95878.88;;;7.30;100.00
11676;BME280;5894;42.768;23.404;2023-04-28T00:16:47;95877.13;;;7.20;100.00
11676;BME280;5894;42.768;23.404;2023-04-28T00:19:27;95883.16;;;7.21;100.00
11676;BME280;5894;42.768;23.404;2023-04-28T00:22:06;95886.56;;;7.21;100.00
11676;BME280;5894;42.768;23.404;2023-04-28T00:24:36;95882.91;;;7.17;100.00
11676;BME280;5894;42.768;23.404;2023-04-28T00:27:38;95891.06;;;7.11;100.00
11676;BME280;5894;42.768;23.404;2023-04-28T00:30:16;95883.75;;;7.08;100.00
11676;BME280;5894;42.768;23.404;2023-04-28T00:32:50;95892.41;;;7.08;100.00
11676;BME280;5894;42.768;23.404;2023-04-28T00:35:28;95893.44;;;7.07;100.00
11676;BME280;5894;42.768;23.404;2023-04-28T00:38:00;95890.34;;;7.05;100.00
11676;BME280;5894;42.768;23.404;2023-04-28T00:40:36;95892.97;;;7.00;100.00
11676;BME280;5894;42.768;23.404;2023-04-28T00:43:08;95855.31;;;6.81;100.00
11676;BME280;5894;42.768;23.404;2023-04-28T00:45:40;95890.03;;;7.07;99.34
11676;BME280;5894;42.768;23.404;2023-04-28T00:48:14;95897.47;;;6.89;100.00
11676;BME280;5894;42.768;23.404;2023-04-28T00:50:51;95898.00;;;6.86;100.00
11676;BME280;5894;42.768;23.404;2023-04-28T00:53:24;95890.69;;;6.83;100.00
11676;BME280;5894;42.768;23.404;2023-04-28T00:59:11;95902.28;;;6.72;100.00
11676;BME280;5894;42.768;23.404;2023-04-28T01:02:10;95899.91;;;6.71;100.00
11676;BME280;5894;42.768;23.404;2023-04-28T01:04:44;95907.50;;;6.67;100.00
11676;BME280;5894;42.768;23.404;2023-04-28T01:07:22;95907.56;;;6.57;100.00
11676;BME280;5894;42.768;23.404;2023-04-28T01:09:51;95824.41;;;6.03;100.00
11676;BME280;5894;42.768;23.404;2023-04-28T01:12:57;95907.34;;;6.43;100.00
11676;BME280;5894;42.768;23.404;2023-04-28T01:15:31;95913.09;;;6.40;100.00
11676;BME280;5894;42.768;23.404;2023-04-28T01:18:12;95914.41;;;6.43;100.00
11676;BME280;5894;42.768;23.404;2023-04-28T01:20:52;95919.38;;;6.44;100.00
11676;BME280;5894;42.768;23.404;2023-04-28T01:23:23;95919.13;;;6.41;100.00
11676;BME280;5894;42.768;23.404;2023-04-28T01:26:09;95917.28;;;6.51;100.00
11676;BME280;5894;42.768;23.404;2023-04-28T01:28:53;95913.09;;;6.40;100.00
11676;BME280;5894;42.768;23.404;2023-04-28T01:34:24;95916.56;;;6.20;100.00
11676;BME280;5894;42.768;23.404;2023-04-28T01:37:17;95921.00;;;6.15;100.00
11676;BME280;5894;42.768;23.404;2023-04-28T01:40:01;95918.94;;;6.12;100.00
11676;BME280;5894;42.768;23.404;2023-04-28T01:42:56;95914.47;;;6.17;100.00
11676;BME280;5894;42.768;23.404;2023-04-28T01:45:35;95914.47;;;6.22;100.00
11676;BME280;5894;42.768;23.404;2023-04-28T01:48:32;95915.22;;;6.13;100.00
11676;BME280;5894;42.768;23.404;2023-04-28T01:51:25;95913.44;;;5.98;100.00
11676;BME280;5894;42.768;23.404;2023-04-28T01:53:57;95812.44;;;5.26;100.00
11676;BME280;5894;42.768;23.404;2023-04-28T01:56:32;95913.44;;;5.98;100.00
11676;BME280;5894;42.768;23.404;2023-04-28T01:59:16;95918.16;;;5.96;100.00
11676;BME280;5894;42.768;23.404;2023-04-28T02:01:49;95921.56;;;6.02;100.00
11676;BME280;5894;42.768;23.404;2023-04-28T02:04:20;95917.63;;;5.99;100.00
11676;BME280;5894;42.768;23.404;2023-04-28T02:06:48;95935.94;;;5.99;100.00
11676;BME280;5894;42.768;23.404;2023-04-28T02:09:16;95917.63;;;5.94;100.00
11676;BME280;5894;42.768;23.404;2023-04-28T02:11:49;95920.22;;;5.94;100.00
11676;BME280;5894;42.768;23.404;2023-04-28T02:14:33;95925.97;;;5.86;100.00
11676;BME280;5894;42.768;23.404;2023-04-28T02:17:16;95926.47;;;5.83;100.00
11676;BME280;5894;42.768;23.404;2023-04-28T02:20:04;95927.28;;;5.78;100.00
11676;BME280;5894;42.768;23.404;2023-04-28T02:22:43;95928.59;;;5.81;100.00
11676;BME280;5894;42.768;23.404;2023-04-28T02:25:15;95933.03;;;5.80;100.00
11676;BME280;5894;42.768;23.404;2023-04-28T02:27:49;95935.66;;;5.80;100.00
11676;BME280;5894;42.768;23.404;2023-04-28T02:30:49;95936.44;;;5.76;100.00
11676;BME280;5894;42.768;23.404;2023-04-28T02:36:17;95927.28;;;5.68;100.00
11676;BME280;5894;42.768;23.404;2023-04-28T02:38:47;95940.91;;;5.80;100.00
11676;BME280;5894;42.768;23.404;2023-04-28T02:41:25;95937.22;;;5.81;100.00
11676;BME280;5894;42.768;23.404;2023-04-28T02:44:01;95947.69;;;5.81;100.00
11676;BME280;5894;42.768;23.404;2023-04-28T02:46:39;95899.53;;;5.47;100.00
11676;BME280;5894;42.768;23.404;2023-04-28T02:49:22;95957.66;;;5.79;100.00
11676;BME280;5894;42.768;23.404;2023-04-28T02:52:06;95947.97;;;5.70;100.00
11676;BME280;5894;42.768;23.404;2023-04-28T02:54:55;95954.75;;;5.71;100.00
11676;BME280;5894;42.768;23.404;2023-04-28T02:57:34;95962.06;;;5.64;100.00
11676;BME280;5894;42.768;23.404;2023-04-28T03:00:22;95957.59;;;5.54;100.00
11676;BME280;5894;42.768;23.404;2023-04-28T03:03:02;95956.56;;;5.55;100.00
11676;BME280;5894;42.768;23.404;2023-04-28T03:05:44;95958.66;;;5.48;100.00
11676;BME280;5894;42.768;23.404;2023-04-28T03:08:19;95954.97;;;5.44;100.00
11676;BME280;5894;42.768;23.404;2023-04-28T03:10:53;95938.44;;;5.23;100.00
11676;BME280;5894;42.768;23.404;2023-04-28T03:13:53;95963.84;;;5.38;100.00
11676;BME280;5894;42.768;23.404;2023-04-28T03:19:30;95963.06;;;5.42;100.00
11676;BME280;5894;42.768;23.404;2023-04-28T03:22:17;95970.41;;;5.45;100.00
11676;BME280;5894;42.768;23.404;2023-04-28T03:24:53;95975.91;;;5.44;100.00
11676;BME280;5894;42.768;23.404;2023-04-28T03:27:40;95964.91;;;5.37;100.00
11676;BME280;5894;42.768;23.404;2023-04-28T03:30:30;95988.16;;;5.33;100.00
11676;BME280;5894;42.768;23.404;2023-04-28T03:33:13;95942.81;;;5.02;100.00
11676;BME280;5894;42.768;23.404;2023-04-28T03:36:03;95991.81;;;5.27;100.00
11676;BME280;5894;42.768;23.404;2023-04-28T03:38:53;96002.50;;;5.21;100.00
11676;BME280;5894;42.768;23.404;2023-04-28T03:41:36;96006.16;;;5.20;100.00
11676;BME280;5894;42.768;23.404;2023-04-28T03:44:27;96008.25;;;5.23;100.00
11676;BME280;5894;42.768;23.404;2023-04-28T03:47:04;96019.50;;;5.23;100.00
11676;BME280;5894;42.768;23.404;2023-04-28T03:49:33;96016.38;;;5.26;100.00
11676;BME280;5894;42.768;23.404;2023-04-28T03:52:08;96014.81;;;5.25;100.00
11676;BME280;5894;42.768;23.404;2023-04-28T03:54:50;96023.69;;;5.24;100.00
11676;BME280;5894;42.768;23.404;2023-04-28T03:57:38;96030.25;;;5.27;100.00
11676;BME280;5894;42.768;23.404;2023-04-28T04:00:15;96026.81;;;5.21;100.00
11676;BME280;5894;42.768;23.404;2023-04-28T04:02:51;96038.06;;;5.22;100.00
11676;BME280;5894;42.768;23.404;2023-04-28T04:05:19;96040.38;;;5.13;100.00
11676;BME280;5894;42.768;23.404;2023-04-28T04:07:55;96045.31;;;5.04;100.00
11676;BME280;5894;42.768;23.404;2023-04-28T04:13:18;96044.22;;;5.00;100.00
11676;BME280;5894;42.768;23.404;2023-04-28T04:15:54;96057.53;;;4.94;100.00
11676;BME280;5894;42.768;23.404;2023-04-28T04:18:31;96012.69;;;4.65;100.00
11676;BME280;5894;42.768;23.404;2023-04-28T04:21:22;96060.91;;;4.89;100.00
11676;BME280;5894;42.768;23.404;2023-04-28T04:23:54;96050.44;;;4.84;100.00
11676;BME280;5894;42.768;23.404;2023-04-28T04:26:24;96057.44;;;4.78;100.00
11676;BME280;5894;42.768;23.404;2023-04-28T04:29:02;96063.75;;;4.83;100.00
11676;BME280;5894;42.768;23.404;2023-04-28T04:31:37;96054.63;;;4.90;100.00
11676;BME280;5894;42.768;23.404;2023-04-28T04:34:15;96061.50;;;5.01;100.00
11676;BME280;5894;42.768;23.404;2023-04-28T04:36:52;96052.13;;;5.10;100.00
11676;BME280;5894;42.768;23.404;2023-04-28T04:39:23;96056.09;;;5.18;100.00
11676;BME280;5894;42.768;23.404;2023-04-28T04:41:55;96060.06;;;5.26;100.00
11676;BME280;5894;42.768;23.404;2023-04-28T04:45:01;96056.19;;;5.38;100.00
11676;BME280;5894;42.768;23.404;2023-04-28T04:47:33;96069.06;;;5.50;100.00
11676;BME280;5894;42.768;23.404;2023-04-28T04:50:01;96072.50;;;5.66;100.00
11676;BME280;5894;42.768;23.404;2023-04-28T04:52:30;96066.75;;;5.69;100.00
11676;BME280;5894;42.768;23.404;2023-04-28T04:55:16;96074.84;;;5.72;100.00
11676;BME280;5894;42.768;23.404;2023-04-28T04:57:54;96075.66;;;5.78;100.00
11676;BME280;5894;42.768;23.404;2023-04-28T05:00:30;96081.75;;;5.94;100.00
11676;BME280;5894;42.768;23.404;2023-04-28T05:03:19;96076.28;;;6.10;100.00
11676;BME280;5894;42.768;23.404;2023-04-28T05:05:51;96086.00;;;6.30;100.00
11676;BME280;5894;42.768;23.404;2023-04-28T05:08:38;96085.47;;;6.48;100.00
11676;BME280;5894;42.768;23.404;2023-04-28T05:11:10;96081.03;;;6.59;100.00
11676;BME280;5894;42.768;23.404;2023-04-28T05:13:45;96086.53;;;6.83;100.00
11676;BME280;5894;42.768;23.404;2023-04-28T05:16:37;96096.69;;;7.10;97.32
11676;BME280;5894;42.768;23.404;2023-04-28T05:19:16;96091.13;;;7.31;95.64
11676;BME280;5894;42.768;23.404;2023-04-28T05:21:50;96087.91;;;7.50;95.16
11676;BME280;5894;42.768;23.404;2023-04-28T05:24:38;96085.25;;;7.65;94.23
11676;BME280;5894;42.768;23.404;2023-04-28T05:27:18;96095.91;;;7.84;92.00
11676;BME280;5894;42.768;23.404;2023-04-28T05:30:14;96093.44;;;8.02;90.39
11676;BME280;5894;42.768;23.404;2023-04-28T05:32:55;96094.34;;;8.27;88.24
11676;BME280;5894;42.768;23.404;2023-04-28T05:35:45;96091.34;;;8.49;87.51
11676;BME280;5894;42.768;23.404;2023-04-28T05:38:15;96090.66;;;8.67;86.74
11676;BME280;5894;42.768;23.404;2023-04-28T05:40:56;96070.31;;;8.77;85.00
11676;BME280;5894;42.768;23.404;2023-04-28T05:43:26;96088.22;;;9.04;83.92
11676;BME280;5894;42.768;23.404;2023-04-28T05:45:55;96093.09;;;9.16;80.85
11676;BME280;5894;42.768;23.404;2023-04-28T05:48:23;96092.94;;;9.31;79.70
11676;BME280;5894;42.768;23.404;2023-04-28T05:50:54;96085.50;;;9.38;76.67
11676;BME280;5894;42.768;23.404;2023-04-28T05:53:34;96087.97;;;9.53;75.94
11676;BME280;5894;42.768;23.404;2023-04-28T05:56:04;96085.41;;;9.67;74.90
11676;BME280;5894;42.768;23.404;2023-04-28T05:58:43;96096.13;;;9.76;70.26
11676;BME280;5894;42.768;23.404;2023-04-28T06:01:11;96094.44;;;9.85;71.72
11676;BME280;5894;42.768;23.404;2023-04-28T06:03:45;96100.91;;;9.92;69.40
11676;BME280;5894;42.768;23.404;2023-04-28T06:06:13;96098.78;;;9.94;66.90
11676;BME280;5894;42.768;23.404;2023-04-28T06:08:48;96098.41;;;9.82;64.48
11676;BME280;5894;42.768;23.404;2023-04-28T06:11:16;96096.97;;;9.71;66.88
11676;BME280;5894;42.768;23.404;2023-04-28T06:13:49;96089.94;;;9.85;69.44
11676;BME280;5894;42.768;23.404;2023-04-28T06:16:23;96084.88;;;9.89;68.18
11676;BME280;5894;42.768;23.404;2023-04-28T06:18:56;96091.16;;;9.93;69.15
11676;BME280;5894;42.768;23.404;2023-04-28T06:21:29;96096.47;;;9.88;68.28
11676;BME280;5894;42.768;23.404;2023-04-28T06:24:05;96088.53;;;9.93;69.28
11676;BME280;5894;42.768;23.404;2023-04-28T06:26:38;96077.47;;;9.91;69.20
11676;BME280;5894;42.768;23.404;2023-04-28T06:29:13;96097.72;;;10.14;66.97
11676;BME280;5894;42.768;23.404;2023-04-28T06:31:46;96101.88;;;10.20;64.97
11676;BME280;5894;42.768;23.404;2023-04-28T06:34:16;96096.72;;;10.10;62.55
11676;BME280;5894;42.768;23.404;2023-04-28T06:36:44;96093.25;;;10.15;61.56
11676;BME280;5894;42.768;23.404;2023-04-28T06:39:15;96088.66;;;10.02;60.49
11676;BME280;5894;42.768;23.404;2023-04-28T06:41:43;96095.16;;;10.09;62.58
11676;BME280;5894;42.768;23.404;2023-04-28T06:44:13;96088.63;;;10.25;63.84
11676;BME280;5894;42.768;23.404;2023-04-28T06:46:46;96083.41;;;10.39;63.94
11676;BME280;5894;42.768;23.404;2023-04-28T06:49:23;96085.31;;;10.52;61.33
11676;BME280;5894;42.768;23.404;2023-04-28T06:51:54;96088.53;;;10.49;59.80
11676;BME280;5894;42.768;23.404;2023-04-28T06:54:24;96094.31;;;10.51;59.46
11676;BME280;5894;42.768;23.404;2023-04-28T06:56:52;96085.72;;;10.59;62.50
11676;BME280;5894;42.768;23.404;2023-04-28T06:59:25;96088.03;;;10.80;61.33
11676;BME280;5894;42.768;23.404;2023-04-28T07:01:55;96085.72;;;10.92;60.34
11676;BME280;5894;42.768;23.404;2023-04-28T07:04:39;96080.09;;;10.98;61.67
11676;BME280;5894;42.768;23.404;2023-04-28T07:07:07;96086.94;;;11.13;60.80
11676;BME280;5894;42.768;23.404;2023-04-28T07:09:40;96089.03;;;11.30;60.95
11676;BME280;5894;42.768;23.404;2023-04-28T07:12:18;96089.91;;;11.39;56.92
11676;BME280;5894;42.768;23.404;2023-04-28T07:14:47;96083.44;;;11.45;55.90
11676;BME280;5894;42.768;23.404;2023-04-28T07:17:23;96084.81;;;11.56;58.02
11676;BME280;5894;42.768;23.404;2023-04-28T07:19:54;96079.53;;;11.56;55.68
11676;BME280;5894;42.768;23.404;2023-04-28T07:22:21;96080.53;;;11.60;56.03
11676;BME280;5894;42.768;23.404;2023-04-28T07:24:48;96089.53;;;11.73;56.48
11676;BME280;5894;42.768;23.404;2023-04-28T07:27:23;96073.47;;;11.69;52.97
11676;BME280;5894;42.768;23.404;2023-04-28T07:29:57;96072.69;;;11.69;51.73
11676;BME280;5894;42.768;23.404;2023-04-28T07:32:26;96076.97;;;11.65;53.14
11676;BME280;5894;42.768;23.404;2023-04-28T07:34:56;96081.22;;;11.80;53.11
11676;BME280;5894;42.768;23.404;2023-04-28T07:37:28;96073.84;;;11.90;54.57
11676;BME280;5894;42.768;23.404;2023-04-28T07:40:02;96077.13;;;12.09;54.35
11676;BME280;5894;42.768;23.404;2023-04-28T07:42:37;96077.03;;;12.37;54.50
11676;BME280;5894;42.768;23.404;2023-04-28T07:45:09;96080.50;;;12.60;52.98
11676;BME280;5894;42.768;23.404;2023-04-28T07:47:38;96072.72;;;12.85;52.68
11676;BME280;5894;42.768;23.404;2023-04-28T07:50:10;96073.41;;;13.00;53.45
11676;BME280;5894;42.768;23.404;2023-04-28T07:52:41;96070.59;;;12.96;46.69
11676;BME280;5894;42.768;23.404;2023-04-28T07:55:23;96066.47;;;12.81;46.89
11676;BME280;5894;42.768;23.404;2023-04-28T07:57:52;96058.34;;;13.09;51.12
11676;BME280;5894;42.768;23.404;2023-04-28T08:00:25;96066.28;;;13.40;51.44
11676;BME280;5894;42.768;23.404;2023-04-28T08:02:59;96069.59;;;13.45;44.24
11676;BME280;5894;42.768;23.404;2023-04-28T08:05:27;96072.00;;;13.73;48.23
11676;BME280;5894;42.768;23.404;2023-04-28T08:07:58;96061.47;;;13.90;45.37
11676;BME280;5894;42.768;23.404;2023-04-28T08:10:31;96062.25;;;14.08;46.48
11676;BME280;5894;42.768;23.404;2023-04-28T08:13:01;96069.28;;;14.29;46.35
11676;BME280;5894;42.768;23.404;2023-04-28T08:15:36;96059.63;;;14.51;46.71
11676;BME280;5894;42.768;23.404;2023-04-28T08:18:04;96070.06;;;14.73;43.81
11676;BME280;5894;42.768;23.404;2023-04-28T08:20:37;96060.13;;;14.53;42.47
11676;BME280;5894;42.768;23.404;2023-04-28T08:23:13;96072.09;;;14.24;45.00
11676;BME280;5894;42.768;23.404;2023-04-28T08:25:49;96061.19;;;14.43;47.54
11676;BME280;5894;42.768;23.404;2023-04-28T08:28:26;96054.34;;;14.42;46.42
11676;BME280;5894;42.768;23.404;2023-04-28T08:31:02;96048.84;;;14.39;48.96
11676;BME280;5894;42.768;23.404;2023-04-28T08:33:36;96051.81;;;14.37;44.64
11676;BME280;5894;42.768;23.404;2023-04-28T08:36:07;96047.13;;;14.25;46.76
11676;BME280;5894;42.768;23.404;2023-04-28T08:38:36;96052.47;;;14.43;45.95
11676;BME280;5894;42.768;23.404;2023-04-28T08:41:07;96044.50;;;14.43;46.70
11676;BME280;5894;42.768;23.404;2023-04-28T08:43:37;96051.22;;;14.49;46.81
11676;BME280;5894;42.768;23.404;2023-04-28T08:46:10;96051.50;;;14.47;46.41
11676;BME280;5894;42.768;23.404;2023-04-28T08:48:39;96041.38;;;14.41;44.44
11676;BME280;5894;42.768;23.404;2023-04-28T08:51:08;96039.50;;;14.41;46.00
11676;BME280;5894;42.768;23.404;2023-04-28T08:53:38;96034.66;;;14.52;45.43
11676;BME280;5894;42.768;23.404;2023-04-28T08:56:10;96033.22;;;14.54;46.24
11676;BME280;5894;42.768;23.404;2023-04-28T08:58:42;96034.13;;;14.76;46.34
11676;BME280;5894;42.768;23.404;2023-04-28T09:01:16;96033.69;;;14.65;45.73
11676;BME280;5894;42.768;23.404;2023-04-28T09:03:53;96033.41;;;14.49;45.13
11676;BME280;5894;42.768;23.404;2023-04-28T09:06:24;96030.75;;;14.58;43.70
11676;BME280;5894;42.768;23.404;2023-04-28T09:08:53;96024.81;;;14.61;45.08
11676;BME280;5894;42.768;23.404;2023-04-28T09:11:21;96022.47;;;14.51;45.83
11676;BME280;5894;42.768;23.404;2023-04-28T09:13:50;96016.06;;;14.43;47.34
11676;BME280;5894;42.768;23.404;2023-04-28T09:16:22;96014.53;;;14.51;46.46
11676;BME280;5894;42.768;23.404;2023-04-28T09:19:08;96007.38;;;14.43;45.86
11676;BME280;5894;42.768;23.404;2023-04-28T09:21:47;96011.41;;;14.40;43.57
11676;BME280;5894;42.768;23.404;2023-04-28T09:24:28;96011.69;;;14.39;44.82
11676;BME280;5894;42.768;23.404;2023-04-28T09:26:58;95913.16;;;13.68;46.19
11676;BME280;5894;42.768;23.404;2023-04-28T09:29:31;96012.34;;;14.44;45.99
11676;BME280;5894;42.768;23.404;2023-04-28T09:32:20;95994.53;;;14.36;44.60
11676;BME280;5894;42.768;23.404;2023-04-28T09:34:52;95966.75;;;14.25;45.56
11676;BME280;5894;42.768;23.404;2023-04-28T09:37:23;95999.84;;;14.45;45.58
11676;BME280;5894;42.768;23.404;2023-04-28T09:39:55;95991.75;;;14.41;45.39
11676;BME280;5894;42.768;23.404;2023-04-28T09:42:34;95973.16;;;14.24;44.22
11676;BME280;5894;42.768;23.404;2023-04-28T09:45:07;95985.00;;;14.35;45.08
11676;BME280;5894;42.768;23.404;2023-04-28T09:47:42;95982.66;;;14.25;41.54
11676;BME280;5894;42.768;23.404;2023-04-28T09:50:15;95981.28;;;14.27;42.00
11676;BME280;5894;42.768;23.404;2023-04-28T09:52:56;95971.28;;;14.24;45.64
11676;BME280;5894;42.768;23.404;2023-04-28T09:55:43;95971.59;;;14.31;44.73
11676;BME280;5894;42.768;23.404;2023-04-28T09:58:12;95969.25;;;14.30;45.63
11676;BME280;5894;42.768;23.404;2023-04-28T10:00:45;95965.34;;;14.27;45.97
11676;BME280;5894;42.768;23.404;2023-04-28T10:03:21;95958.78;;;14.25;46.17
11676;BME280;5894;42.768;23.404;2023-04-28T10:05:50;95960.97;;;14.23;45.86
11676;BME280;5894;42.768;23.404;2023-04-28T10:08:20;95958.31;;;14.23;43.61
11676;BME280;5894;42.768;23.404;2023-04-28T10:10:48;95956.16;;;14.25;43.43
11676;BME280;5894;42.768;23.404;2023-04-28T10:13:19;95960.69;;;14.16;44.23
11676;BME280;5894;42.768;23.404;2023-04-28T10:15:47;95950.06;;;14.16;45.40
11676;BME280;5894;42.768;23.404;2023-04-28T10:18:15;95876.66;;;13.65;46.46
11676;BME280;5894;42.768;23.404;2023-04-28T10:20:46;95944.63;;;14.21;46.47
11676;BME280;5894;42.768;23.404;2023-04-28T10:23:36;95927.16;;;13.94;43.68
11676;BME280;5894;42.768;23.404;2023-04-28T10:26:11;95949.59;;;14.22;45.97
11676;BME280;5894;42.768;23.404;2023-04-28T10:28:47;95940.25;;;14.16;45.49
11676;BME280;5894;42.768;23.404;2023-04-28T10:31:20;95940.41;;;14.20;46.65
11676;BME280;5894;42.768;23.404;2023-04-28T10:33:50;95944.00;;;14.15;46.33
11676;BME280;5894;42.768;23.404;2023-04-28T10:36:49;95937.09;;;14.23;44.29
11676;BME280;5894;42.768;23.404;2023-04-28T10:39:20;95933.53;;;14.27;46.01
11676;BME280;5894;42.768;23.404;2023-04-28T10:41:49;95922.28;;;14.30;46.68
11676;BME280;5894;42.768;23.404;2023-04-28T10:44:40;95920.53;;;14.34;46.87
11676;BME280;5894;42.768;23.404;2023-04-28T10:47:09;95918.81;;;14.39;47.22
11676;BME280;5894;42.768;23.404;2023-04-28T10:50:05;95921.66;;;14.42;45.79
11676;BME280;5894;42.768;23.404;2023-04-28T10:52:50;95911.84;;;14.43;45.76
11676;BME280;5894;42.768;23.404;2023-04-28T10:55:30;95910.06;;;14.55;46.10
11676;BME280;5894;42.768;23.404;2023-04-28T10:58:30;95899.72;;;14.71;46.85
11676;BME280;5894;42.768;23.404;2023-04-28T11:01:29;95907.75;;;14.92;46.85
11676;BME280;5894;42.768;23.404;2023-04-28T11:04:05;95843.22;;;14.62;42.38
11676;BME280;5894;42.768;23.404;2023-04-28T11:06:38;95898.56;;;15.10;45.52
11676;BME280;5894;42.768;23.404;2023-04-28T11:12:08;95896.81;;;15.43;45.85
11676;BME280;5894;42.768;23.404;2023-04-28T11:14:37;95891.28;;;15.49;43.63
11676;BME280;5894;42.768;23.404;2023-04-28T11:17:06;95863.50;;;15.46;43.57
11676;BME280;5894;42.768;23.404;2023-04-28T11:19:35;95871.91;;;15.69;44.80
11676;BME280;5894;42.768;23.404;2023-04-28T11:22:13;95867.56;;;15.85;43.12
11676;BME280;5894;42.768;23.404;2023-04-28T11:24:54;95869.38;;;15.93;43.39
11676;BME280;5894;42.768;23.404;2023-04-28T11:27:30;95879.13;;;16.01;43.28
11676;BME280;5894;42.768;23.404;2023-04-28T11:29:58;95871.41;;;16.08;42.64
11676;BME280;5894;42.768;23.404;2023-04-28T11:32:27;95871.66;;;16.15;42.55
11676;BME280;5894;42.768;23.404;2023-04-28T11:34:58;95869.81;;;16.28;42.47
11676;BME280;5894;42.768;23.404;2023-04-28T11:37:25;95866.03;;;16.41;40.65
11676;BME280;5894;42.768;23.404;2023-04-28T11:39:53;95856.06;;;16.38;41.98
11676;BME280;5894;42.768;23.404;2023-04-28T11:42:22;95850.19;;;16.45;43.56
11676;BME280;5894;42.768;23.404;2023-04-28T11:44:52;95847.53;;;16.57;44.30
11676;BME280;5894;42.768;23.404;2023-04-28T11:47:30;95844.69;;;16.74;42.33
11676;BME280;5894;42.768;23.404;2023-04-28T11:50:01;95852.69;;;16.74;38.99
11676;BME280;5894;42.768;23.404;2023-04-28T11:52:28;95849.34;;;16.77;41.81
11676;BME280;5894;42.768;23.404;2023-04-28T11:54:58;95840.91;;;16.87;40.87
11676;BME280;5894;42.768;23.404;2023-04-28T11:57:31;95837.91;;;17.01;42.97
11676;BME280;5894;42.768;23.404;2023-04-28T12:00:13;95840.13;;;17.11;41.98
11676;BME280;5894;42.768;23.404;2023-04-28T12:02:46;95828.22;;;17.21;41.31
11676;BME280;5894;42.768;23.404;2023-04-28T12:05:13;95833.53;;;17.33;40.23
11676;BME280;5894;42.768;23.404;2023-04-28T12:07:41;95837.53;;;17.55;39.71
11676;BME280;5894;42.768;23.404;2023-04-28T12:10:11;95830.44;;;17.59;38.16
11676;BME280;5894;42.768;23.404;2023-04-28T12:12:43;95828.81;;;17.82;40.66
11676;BME280;5894;42.768;23.404;2023-04-28T12:15:13;95817.25;;;18.06;40.19
11676;BME280;5894;42.768;23.404;2023-04-28T12:17:41;95812.25;;;18.20;37.74
11676;BME280;5894;42.768;23.404;2023-04-28T12:20:32;95816.84;;;18.36;38.15
11676;BME280;5894;42.768;23.404;2023-04-28T12:23:00;95817.69;;;18.40;37.14
11676;BME280;5894;42.768;23.404;2023-04-28T12:25:28;95796.31;;;18.40;37.14
11676;BME280;5894;42.768;23.404;2023-04-28T12:27:58;95802.63;;;18.63;37.77
11676;BME280;5894;42.768;23.404;2023-04-28T12:30:31;95803.16;;;18.68;37.63
11676;BME280;5894;42.768;23.404;2023-04-28T12:33:00;95802.19;;;18.77;36.81
11676;BME280;5894;42.768;23.404;2023-04-28T12:35:28;95800.34;;;18.81;37.13
11676;BME280;5894;42.768;23.404;2023-04-28T12:37:56;95787.53;;;18.86;35.79
11676;BME280;5894;42.768;23.404;2023-04-28T12:40:26;95793.22;;;18.85;36.60
11676;BME280;5894;42.768;23.404;2023-04-28T12:42:54;95782.72;;;18.76;36.47
11676;BME280;5894;42.768;23.404;2023-04-28T12:45:22;95783.56;;;18.80;37.08
11676;BME280;5894;42.768;23.404;2023-04-28T12:47:51;95781.25;;;18.79;37.42
11676;BME280;5894;42.768;23.404;2023-04-28T12:50:18;95777.44;;;18.80;36.78
11676;BME280;5894;42.768;23.404;2023-04-28T12:52:48;95783.41;;;18.73;36.07
11676;BME280;5894;42.768;23.404;2023-04-28T12:55:16;95779.28;;;18.76;37.05
11676;BME280;5894;42.768;23.404;2023-04-28T12:57:44;95765.97;;;18.79;36.93
11676;BME280;5894;42.768;23.404;2023-04-28T13:00:23;95769.47;;;18.64;36.50
11676;BME280;5894;42.768;23.404;2023-04-28T13:02:55;95768.84;;;18.70;37.65
11676;BME280;5894;42.768;23.404;2023-04-28T13:05:23;95767.66;;;18.68;36.80
11676;BME280;5894;42.768;23.404;2023-04-28T13:07:53;95771.84;;;18.53;36.16
11676;BME280;5894;42.768;23.404;2023-04-28T13:10:23;95766.19;;;18.55;37.12
11676;BME280;5894;42.768;23.404;2023-04-28T13:12:53;95761.44;;;18.64;36.23
11676;BME280;5894;42.768;23.404;2023-04-28T13:15:21;95757.66;;;18.65;36.95
11676;BME280;5894;42.768;23.404;2023-04-28T13:17:50;95759.47;;;18.61;36.48
11676;BME280;5894;42.768;23.404;2023-04-28T13:20:19;95753.06;;;18.50;36.76
11676;BME280;5894;42.768;23.404;2023-04-28T13:22:46;95754.97;;;18.49;36.89
11676;BME280;5894;42.768;23.404;2023-04-28T13:25:14;95745.78;;;18.31;38.06
11676;BME280;5894;42.768;23.404;2023-04-28T13:27:42;95758.09;;;18.36;37.76
11676;BME280;5894;42.768;23.404;2023-04-28T13:30:12;95755.09;;;18.37;38.15
11676;BME280;5894;42.768;23.404;2023-04-28T13:32:39;95750.94;;;18.40;37.49
11676;BME280;5894;42.768;23.404;2023-04-28T13:35:07;95749.38;;;18.39;37.80
11676;BME280;5894;42.768;23.404;2023-04-28T13:37:42;95750.69;;;18.29;38.20
11676;BME280;5894;42.768;23.404;2023-04-28T13:40:11;95739.31;;;18.32;38.52
11676;BME280;5894;42.768;23.404;2023-04-28T13:42:39;95739.81;;;18.38;37.60
11676;BME280;5894;42.768;23.404;2023-04-28T13:45:07;95746.72;;;18.39;38.41
11676;BME280;5894;42.768;23.404;2023-04-28T13:47:34;95735.00;;;18.27;36.90
11676;BME280;5894;42.768;23.404;2023-04-28T13:50:03;95738.81;;;18.26;37.11
11676;BME280;5894;42.768;23.404;2023-04-28T13:52:34;95735.44;;;18.29;38.20
11676;BME280;5894;42.768;23.404;2023-04-28T13:55:06;95732.78;;;18.29;37.06
11676;BME280;5894;42.768;23.404;2023-04-28T13:57:34;95727.63;;;18.21;36.47
11676;BME280;5894;42.768;23.404;2023-04-28T14:00:05;95678.56;;;17.78;37.41
11676;BME280;5894;42.768;23.404;2023-04-28T14:02:33;95717.38;;;18.07;36.25